sensor_id;sensor_type;location;lat;lon;timestamp;P1;durP1;ratioP1;P2;durP2;ratioP2
20988;SDS011;10653;47.052;15.410;2023-12-07T00:00:31;78.10;;;30.10;;
20988;SDS011;10653;47.052;15.410;2023-12-07T00:02:57;75.00;;;28.83;;
20988;SDS011;10653;47.052;15.410;2023-12-07T00:05:24;58.38;;;29.20;;
20988;SDS011;10653;47.052;15.410;2023-12-07T00:07:50;42.13;;;26.23;;
20988;SDS011;10653;47.052;15.410;2023-12-07T00:10:16;44.57;;;28.70;;
20988;SDS011;10653;47.052;15.410;2023-12-07T00:12:42;66.00;;;29.00;;
20988;SDS011;10653;47.052;15.410;2023-12-07T00:15:08;106.37;;;32.30;;
20988;SDS011;10653;47.052;15.410;2023-12-07T00:17:34;103.45;;;30.75;;
20988;SDS011;10653;47.052;15.410;2023-12-07T00:20:01;143.73;;;34.55;;
20988;SDS011;10653;47.052;15.410;2023-12-07T00:22:29;97.38;;;32.05;;
20988;SDS011;10653;47.052;15.410;2023-12-07T00:24:55;44.22;;;23.25;;
20988;SDS011;10653;47.052;15.410;2023-12-07T00:27:21;33.30;;;23.33;;
20988;SDS011;10653;47.052;15.410;2023-12-07T00:29:47;62.45;;;25.83;;
20988;SDS011;10653;47.052;15.410;2023-12-07T00:32:13;195.68;;;36.30;;
20988;SDS011;10653;47.052;15.410;2023-12-07T00:34:39;130.27;;;30.23;;
20988;SDS011;10653;47.052;15.410;2023-12-07T00:37:05;37.63;;;22.97;;
20988;SDS011;10653;47.052;15.410;2023-12-07T00:39:32;118.47;;;28.60;;
20988;SDS011;10653;47.052;15.410;2023-12-07T00:41:58;34.55;;;23.42;;
20988;SDS011;10653;47.052;15.410;2023-12-07T00:44:24;49.05;;;25.35;;
20988;SDS011;10653;47.052;15.410;2023-12-07T00:46:50;121.00;;;29.43;;
20988;SDS011;10653;47.052;15.410;2023-12-07T00:49:16;123.80;;;33.10;;
20988;SDS011;10653;47.052;15.410;2023-12-07T00:51:42;74.37;;;26.30;;
20988;SDS011;10653;47.052;15.410;2023-12-07T00:54:08;109.07;;;28.47;;
20988;SDS011;10653;47.052;15.410;2023-12-07T00:56:34;92.97;;;29.10;;
20988;SDS011;10653;47.052;15.410;2023-12-07T00:59:00;41.50;;;25.48;;
20988;SDS011;10653;47.052;15.410;2023-12-07T01:01:27;160.33;;;35.47;;
20988;SDS011;10653;47.052;15.410;2023-12-07T01:03:53;98.78;;;29.15;;
20988;SDS011;10653;47.052;15.410;2023-12-07T01:06:19;45.87;;;23.90;;
20988;SDS011;10653;47.052;15.410;2023-12-07T01:08:45;124.90;;;30.15;;
20988;SDS011;10653;47.052;15.410;2023-12-07T01:11:11;89.33;;;26.00;;
20988;SDS011;10653;47.052;15.410;2023-12-07T01:13:37;83.25;;;27.45;;
20988;SDS011;10653;47.052;15.410;2023-12-07T01:16:03;64.07;;;25.60;;
20988;SDS011;10653;47.052;15.410;2023-12-07T01:18:29;84.57;;;27.30;;
20988;SDS011;10653;47.052;15.410;2023-12-07T01:20:55;60.07;;;23.93;;
20988;SDS011;10653;47.052;15.410;2023-12-07T01:23:21;55.30;;;23.53;;
20988;SDS011;10653;47.052;15.410;2023-12-07T01:25:47;52.13;;;24.97;;
20988;SDS011;10653;47.052;15.410;2023-12-07T01:28:13;38.40;;;23.23;;
20988;SDS011;10653;47.052;15.410;2023-12-07T01:30:39;30.87;;;21.33;;
20988;SDS011;10653;47.052;15.410;2023-12-07T01:33:05;63.10;;;24.40;;
20988;SDS011;10653;47.052;15.410;2023-12-07T01:35:31;31.33;;;20.67;;
20988;SDS011;10653;47.052;15.410;2023-12-07T01:37:57;56.57;;;23.60;;
20988;SDS011;10653;47.052;15.410;2023-12-07T01:40:23;31.27;;;22.00;;
20988;SDS011;10653;47.052;15.410;2023-12-07T01:42:50;44.80;;;23.27;;
20988;SDS011;10653;47.052;15.410;2023-12-07T01:45:16;40.88;;;22.55;;
20988;SDS011;10653;47.052;15.410;2023-12-07T01:47:42;45.17;;;21.60;;
20988;SDS011;10653;47.052;15.410;2023-12-07T01:50:09;39.55;;;24.80;;
20988;SDS011;10653;47.052;15.410;2023-12-07T01:52:36;51.38;;;23.85;;
20988;SDS011;10653;47.052;15.410;2023-12-07T01:55:04;37.95;;;23.45;;
20988;SDS011;10653;47.052;15.410;2023-12-07T01:57:30;67.78;;;24.15;;
20988;SDS011;10653;47.052;15.410;2023-12-07T01:59:56;27.75;;;22.17;;
20988;SDS011;10653;47.052;15.410;2023-12-07T02:02:22;54.60;;;24.55;;
20988;SDS011;10653;47.052;15.410;2023-12-07T02:04:48;45.08;;;23.30;;
20988;SDS011;10653;47.052;15.410;2023-12-07T02:07:15;51.55;;;24.10;;
20988;SDS011;10653;47.052;15.410;2023-12-07T02:09:41;57.00;;;26.30;;
20988;SDS011;10653;47.052;15.410;2023-12-07T02:12:07;36.03;;;23.87;;
20988;SDS011;10653;47.052;15.410;2023-12-07T02:14:33;30.63;;;22.88;;
20988;SDS011;10653;47.052;15.410;2023-12-07T02:17:10;36.85;;;25.33;;
20988;SDS011;10653;47.052;15.410;2023-12-07T02:20:03;30.75;;;24.40;;
20988;SDS011;10653;47.052;15.410;2023-12-07T02:22:33;39.28;;;25.63;;
20988;SDS011;10653;47.052;15.410;2023-12-07T02:25:07;51.50;;;25.15;;
20988;SDS011;10653;47.052;15.410;2023-12-07T02:27:36;47.03;;;25.05;;
20988;SDS011;10653;47.052;15.410;2023-12-07T02:30:03;57.00;;;26.45;;
20988;SDS011;10653;47.052;15.410;2023-12-07T02:32:29;52.15;;;22.70;;
20988;SDS011;10653;47.052;15.410;2023-12-07T02:34:55;31.77;;;20.63;;
20988;SDS011;10653;47.052;15.410;2023-12-07T02:37:21;56.35;;;24.30;;
20988;SDS011;10653;47.052;15.410;2023-12-07T02:39:48;50.72;;;23.25;;
20988;SDS011;10653;47.052;15.410;2023-12-07T02:42:14;41.25;;;21.35;;
20988;SDS011;10653;47.052;15.410;2023-12-07T02:44:41;32.88;;;21.08;;
20988;SDS011;10653;47.052;15.410;2023-12-07T02:47:07;58.10;;;23.95;;
20988;SDS011;10653;47.052;15.410;2023-12-07T02:49:33;23.92;;;20.15;;
20988;SDS011;10653;47.052;15.410;2023-12-07T02:52:01;60.50;;;22.85;;
20988;SDS011;10653;47.052;15.410;2023-12-07T02:54:27;77.32;;;25.75;;
20988;SDS011;10653;47.052;15.410;2023-12-07T02:56:53;52.37;;;21.10;;
20988;SDS011;10653;47.052;15.410;2023-12-07T02:59:19;34.72;;;21.50;;
20988;SDS011;10653;47.052;15.410;2023-12-07T03:01:45;32.47;;;21.47;;
20988;SDS011;10653;47.052;15.410;2023-12-07T03:04:11;61.03;;;24.80;;
20988;SDS011;10653;47.052;15.410;2023-12-07T03:06:37;33.80;;;20.97;;
20988;SDS011;10653;47.052;15.410;2023-12-07T03:09:03;82.37;;;26.23;;
20988;SDS011;10653;47.052;15.410;2023-12-07T03:11:29;40.00;;;21.40;;
20988;SDS011;10653;47.052;15.410;2023-12-07T03:13:55;38.50;;;21.85;;
20988;SDS011;10653;47.052;15.410;2023-12-07T03:16:21;60.53;;;23.40;;
20988;SDS011;10653;47.052;15.410;2023-12-07T03:18:47;30.53;;;21.40;;
20988;SDS011;10653;47.052;15.410;2023-12-07T03:21:13;50.20;;;22.27;;
20988;SDS011;10653;47.052;15.410;2023-12-07T03:23:39;41.23;;;21.80;;
20988;SDS011;10653;47.052;15.410;2023-12-07T03:26:05;67.97;;;23.60;;
20988;SDS011;10653;47.052;15.410;2023-12-07T03:28:31;41.58;;;22.50;;
20988;SDS011;10653;47.052;15.410;2023-12-07T03:30:57;29.50;;;20.75;;
20988;SDS011;10653;47.052;15.410;2023-12-07T03:33:23;29.30;;;19.90;;
20988;SDS011;10653;47.052;15.410;2023-12-07T03:35:49;57.93;;;22.40;;
20988;SDS011;10653;47.052;15.410;2023-12-07T03:38:15;68.68;;;21.17;;
20988;SDS011;10653;47.052;15.410;2023-12-07T03:40:41;33.60;;;19.43;;
20988;SDS011;10653;47.052;15.410;2023-12-07T03:43:07;33.28;;;20.20;;
20988;SDS011;10653;47.052;15.410;2023-12-07T03:45:33;32.47;;;22.20;;
20988;SDS011;10653;47.052;15.410;2023-12-07T03:47:58;38.20;;;21.97;;
20988;SDS011;10653;47.052;15.410;2023-12-07T03:50:25;25.10;;;19.65;;
20988;SDS011;10653;47.052;15.410;2023-12-07T03:52:50;48.77;;;22.77;;
20988;SDS011;10653;47.052;15.410;2023-12-07T03:55:17;48.97;;;21.85;;
20988;SDS011;10653;47.052;15.410;2023-12-07T03:57:42;52.50;;;23.00;;
20988;SDS011;10653;47.052;15.410;2023-12-07T04:00:10;42.53;;;22.73;;
20988;SDS011;10653;47.052;15.410;2023-12-07T04:02:36;28.55;;;19.63;;
20988;SDS011;10653;47.052;15.410;2023-12-07T04:05:02;34.40;;;19.50;;
20988;SDS011;10653;47.052;15.410;2023-12-07T04:07:29;29.10;;;18.48;;
20988;SDS011;10653;47.052;15.410;2023-12-07T04:09:55;22.63;;;17.88;;
20988;SDS011;10653;47.052;15.410;2023-12-07T04:12:24;23.63;;;18.70;;
20988;SDS011;10653;47.052;15.410;2023-12-07T04:14:50;37.03;;;19.35;;
20988;SDS011;10653;47.052;15.410;2023-12-07T04:17:19;41.38;;;20.52;;
20988;SDS011;10653;47.052;15.410;2023-12-07T04:19:46;54.25;;;21.63;;
20988;SDS011;10653;47.052;15.410;2023-12-07T04:22:12;33.53;;;20.13;;
20988;SDS011;10653;47.052;15.410;2023-12-07T04:24:38;29.45;;;19.02;;
20988;SDS011;10653;47.052;15.410;2023-12-07T04:27:04;28.15;;;18.70;;
20988;SDS011;10653;47.052;15.410;2023-12-07T04:29:30;22.35;;;18.00;;
20988;SDS011;10653;47.052;15.410;2023-12-07T04:31:56;28.10;;;18.98;;
20988;SDS011;10653;47.052;15.410;2023-12-07T04:34:22;29.63;;;17.87;;
20988;SDS011;10653;47.052;15.410;2023-12-07T04:36:49;31.10;;;18.50;;
20988;SDS011;10653;47.052;15.410;2023-12-07T04:39:15;29.00;;;18.17;;
20988;SDS011;10653;47.052;15.410;2023-12-07T04:41:41;51.35;;;22.65;;
20988;SDS011;10653;47.052;15.410;2023-12-07T04:44:07;27.58;;;17.58;;
20988;SDS011;10653;47.052;15.410;2023-12-07T04:46:33;54.78;;;20.30;;
20988;SDS011;10653;47.052;15.410;2023-12-07T04:49:00;21.98;;;17.75;;
20988;SDS011;10653;47.052;15.410;2023-12-07T04:51:26;26.40;;;19.13;;
20988;SDS011;10653;47.052;15.410;2023-12-07T04:53:52;24.33;;;18.58;;
20988;SDS011;10653;47.052;15.410;2023-12-07T04:56:18;27.30;;;18.80;;
20988;SDS011;10653;47.052;15.410;2023-12-07T04:58:44;28.65;;;18.98;;
20988;SDS011;10653;47.052;15.410;2023-12-07T05:01:10;26.70;;;19.67;;
20988;SDS011;10653;47.052;15.410;2023-12-07T05:03:36;26.17;;;18.23;;
20988;SDS011;10653;47.052;15.410;2023-12-07T05:06:02;33.60;;;18.80;;
20988;SDS011;10653;47.052;15.410;2023-12-07T05:08:28;27.55;;;20.10;;
20988;SDS011;10653;47.052;15.410;2023-12-07T05:10:54;32.25;;;18.67;;
20988;SDS011;10653;47.052;15.410;2023-12-07T05:13:20;47.43;;;20.60;;
20988;SDS011;10653;47.052;15.410;2023-12-07T05:15:46;29.93;;;18.73;;
20988;SDS011;10653;47.052;15.410;2023-12-07T05:18:12;25.57;;;18.03;;
20988;SDS011;10653;47.052;15.410;2023-12-07T05:20:38;31.88;;;18.70;;
20988;SDS011;10653;47.052;15.410;2023-12-07T05:23:04;33.17;;;19.00;;
20988;SDS011;10653;47.052;15.410;2023-12-07T05:25:31;22.73;;;18.73;;
20988;SDS011;10653;47.052;15.410;2023-12-07T05:27:57;27.73;;;19.75;;
20988;SDS011;10653;47.052;15.410;2023-12-07T05:30:23;34.88;;;19.80;;
20988;SDS011;10653;47.052;15.410;2023-12-07T05:32:49;27.33;;;19.15;;
20988;SDS011;10653;47.052;15.410;2023-12-07T05:35:16;35.92;;;19.17;;
20988;SDS011;10653;47.052;15.410;2023-12-07T05:37:42;29.77;;;20.45;;
20988;SDS011;10653;47.052;15.410;2023-12-07T05:40:08;34.80;;;19.63;;
20988;SDS011;10653;47.052;15.410;2023-12-07T05:42:34;47.85;;;21.90;;
20988;SDS011;10653;47.052;15.410;2023-12-07T05:45:00;33.03;;;19.85;;
20988;SDS011;10653;47.052;15.410;2023-12-07T05:47:26;30.55;;;18.60;;
20988;SDS011;10653;47.052;15.410;2023-12-07T05:49:52;46.72;;;20.20;;
20988;SDS011;10653;47.052;15.410;2023-12-07T05:52:18;28.23;;;20.10;;
20988;SDS011;10653;47.052;15.410;2023-12-07T05:54:44;28.70;;;17.93;;
20988;SDS011;10653;47.052;15.410;2023-12-07T05:57:12;27.80;;;19.08;;
20988;SDS011;10653;47.052;15.410;2023-12-07T05:59:39;31.00;;;19.83;;
20988;SDS011;10653;47.052;15.410;2023-12-07T06:02:06;30.67;;;19.35;;
20988;SDS011;10653;47.052;15.410;2023-12-07T06:04:33;29.15;;;19.90;;
20988;SDS011;10653;47.052;15.410;2023-12-07T06:06:59;31.63;;;19.10;;
20988;SDS011;10653;47.052;15.410;2023-12-07T06:09:25;35.63;;;19.70;;
20988;SDS011;10653;47.052;15.410;2023-12-07T06:11:51;36.73;;;21.00;;
20988;SDS011;10653;47.052;15.410;2023-12-07T06:14:17;33.17;;;21.50;;
20988;SDS011;10653;47.052;15.410;2023-12-07T06:16:43;35.97;;;19.80;;
20988;SDS011;10653;47.052;15.410;2023-12-07T06:19:09;50.27;;;23.27;;
20988;SDS011;10653;47.052;15.410;2023-12-07T06:21:35;27.73;;;20.00;;
20988;SDS011;10653;47.052;15.410;2023-12-07T06:24:01;23.87;;;17.43;;
20988;SDS011;10653;47.052;15.410;2023-12-07T06:26:27;26.27;;;19.95;;
20988;SDS011;10653;47.052;15.410;2023-12-07T06:28:53;30.50;;;20.60;;
20988;SDS011;10653;47.052;15.410;2023-12-07T06:31:19;24.83;;;19.23;;
20988;SDS011;10653;47.052;15.410;2023-12-07T06:33:46;26.02;;;19.52;;
20988;SDS011;10653;47.052;15.410;2023-12-07T06:36:19;29.23;;;19.85;;
20988;SDS011;10653;47.052;15.410;2023-12-07T06:38:45;45.15;;;22.60;;
20988;SDS011;10653;47.052;15.410;2023-12-07T06:41:11;25.92;;;20.05;;
20988;SDS011;10653;47.052;15.410;2023-12-07T06:43:37;51.47;;;25.45;;
20988;SDS011;10653;47.052;15.410;2023-12-07T06:46:03;48.15;;;25.02;;
20988;SDS011;10653;47.052;15.410;2023-12-07T06:48:29;39.67;;;22.23;;
20988;SDS011;10653;47.052;15.410;2023-12-07T06:50:55;48.97;;;23.92;;
20988;SDS011;10653;47.052;15.410;2023-12-07T06:53:21;46.87;;;24.13;;
20988;SDS011;10653;47.052;15.410;2023-12-07T06:55:47;56.63;;;26.03;;
20988;SDS011;10653;47.052;15.410;2023-12-07T06:58:13;30.03;;;21.93;;
20988;SDS011;10653;47.052;15.410;2023-12-07T07:00:39;72.30;;;25.08;;
20988;SDS011;10653;47.052;15.410;2023-12-07T07:03:05;46.22;;;23.45;;
20988;SDS011;10653;47.052;15.410;2023-12-07T07:05:31;36.83;;;23.23;;
20988;SDS011;10653;47.052;15.410;2023-12-07T07:07:57;37.90;;;25.10;;
20988;SDS011;10653;47.052;15.410;2023-12-07T07:10:23;30.40;;;20.97;;
20988;SDS011;10653;47.052;15.410;2023-12-07T07:12:49;36.97;;;24.08;;
20988;SDS011;10653;47.052;15.410;2023-12-07T07:15:16;37.13;;;23.70;;
20988;SDS011;10653;47.052;15.410;2023-12-07T07:17:42;60.28;;;24.60;;
20988;SDS011;10653;47.052;15.410;2023-12-07T07:20:08;38.17;;;23.87;;
20988;SDS011;10653;47.052;15.410;2023-12-07T07:22:34;36.97;;;22.83;;
20988;SDS011;10653;47.052;15.410;2023-12-07T07:25:00;71.28;;;28.63;;
20988;SDS011;10653;47.052;15.410;2023-12-07T07:27:26;46.00;;;24.70;;
20988;SDS011;10653;47.052;15.410;2023-12-07T07:29:52;48.70;;;26.30;;
20988;SDS011;10653;47.052;15.410;2023-12-07T07:32:18;31.13;;;23.00;;
20988;SDS011;10653;47.052;15.410;2023-12-07T07:34:44;29.73;;;22.47;;
20988;SDS011;10653;47.052;15.410;2023-12-07T07:37:10;33.13;;;24.02;;
20988;SDS011;10653;47.052;15.410;2023-12-07T07:39:36;31.80;;;22.98;;
20988;SDS011;10653;47.052;15.410;2023-12-07T07:42:02;28.65;;;22.70;;
20988;SDS011;10653;47.052;15.410;2023-12-07T07:44:29;31.38;;;23.60;;
20988;SDS011;10653;47.052;15.410;2023-12-07T07:46:55;32.35;;;24.45;;
20988;SDS011;10653;47.052;15.410;2023-12-07T07:49:22;31.15;;;23.70;;
20988;SDS011;10653;47.052;15.410;2023-12-07T07:51:48;33.70;;;24.02;;
20988;SDS011;10653;47.052;15.410;2023-12-07T07:54:16;32.35;;;23.88;;
20988;SDS011;10653;47.052;15.410;2023-12-07T07:56:42;31.30;;;24.00;;
20988;SDS011;10653;47.052;15.410;2023-12-07T07:59:09;30.00;;;25.80;;
20988;SDS011;10653;47.052;15.410;2023-12-07T08:01:36;32.00;;;24.52;;
20988;SDS011;10653;47.052;15.410;2023-12-07T08:04:02;27.73;;;22.60;;
20988;SDS011;10653;47.052;15.410;2023-12-07T08:06:28;26.08;;;21.80;;
20988;SDS011;10653;47.052;15.410;2023-12-07T08:08:54;26.33;;;21.90;;
20988;SDS011;10653;47.052;15.410;2023-12-07T08:11:20;25.50;;;20.67;;
20988;SDS011;10653;47.052;15.410;2023-12-07T08:13:46;23.20;;;16.03;;
20988;SDS011;10653;47.052;15.410;2023-12-07T08:16:12;21.40;;;14.10;;
20988;SDS011;10653;47.052;15.410;2023-12-07T08:18:38;13.40;;;12.00;;
20988;SDS011;10653;47.052;15.410;2023-12-07T08:21:04;15.85;;;13.63;;
20988;SDS011;10653;47.052;15.410;2023-12-07T08:23:33;18.15;;;15.38;;
20988;SDS011;10653;47.052;15.410;2023-12-07T08:25:59;18.02;;;16.13;;
20988;SDS011;10653;47.052;15.410;2023-12-07T08:28:25;23.42;;;15.95;;
20988;SDS011;10653;47.052;15.410;2023-12-07T08:30:51;17.90;;;15.82;;
20988;SDS011;10653;47.052;15.410;2023-12-07T08:33:17;15.90;;;13.50;;
20988;SDS011;10653;47.052;15.410;2023-12-07T08:35:43;14.90;;;13.30;;
20988;SDS011;10653;47.052;15.410;2023-12-07T08:38:09;19.58;;;14.45;;
20988;SDS011;10653;47.052;15.410;2023-12-07T08:40:35;13.02;;;11.15;;
20988;SDS011;10653;47.052;15.410;2023-12-07T08:43:01;14.20;;;11.80;;
20988;SDS011;10653;47.052;15.410;2023-12-07T08:45:27;12.77;;;11.13;;
20988;SDS011;10653;47.052;15.410;2023-12-07T08:47:53;14.87;;;11.40;;
20988;SDS011;10653;47.052;15.410;2023-12-07T08:50:19;13.90;;;11.70;;
20988;SDS011;10653;47.052;15.410;2023-12-07T08:52:45;12.93;;;11.63;;
20988;SDS011;10653;47.052;15.410;2023-12-07T08:55:11;12.40;;;11.07;;
20988;SDS011;10653;47.052;15.410;2023-12-07T08:57:40;12.00;;;10.40;;
20988;SDS011;10653;47.052;15.410;2023-12-07T09:00:06;12.50;;;10.60;;
20988;SDS011;10653;47.052;15.410;2023-12-07T09:02:32;11.15;;;10.05;;
20988;SDS011;10653;47.052;15.410;2023-12-07T09:04:58;13.38;;;10.73;;
20988;SDS011;10653;47.052;15.410;2023-12-07T09:07:24;15.97;;;10.73;;
20988;SDS011;10653;47.052;15.410;2023-12-07T09:09:50;13.33;;;10.27;;
20988;SDS011;10653;47.052;15.410;2023-12-07T09:12:16;11.70;;;10.50;;
20988;SDS011;10653;47.052;15.410;2023-12-07T09:14:42;12.50;;;9.90;;
20988;SDS011;10653;47.052;15.410;2023-12-07T09:17:08;9.40;;;8.50;;
20988;SDS011;10653;47.052;15.410;2023-12-07T09:19:34;13.85;;;10.00;;
20988;SDS011;10653;47.052;15.410;2023-12-07T09:22:00;9.45;;;8.55;;
20988;SDS011;10653;47.052;15.410;2023-12-07T09:24:26;9.23;;;8.20;;
20988;SDS011;10653;47.052;15.410;2023-12-07T09:26:52;9.20;;;8.23;;
20988;SDS011;10653;47.052;15.410;2023-12-07T09:29:18;11.65;;;10.07;;
20988;SDS011;10653;47.052;15.410;2023-12-07T09:31:44;10.83;;;9.40;;
20988;SDS011;10653;47.052;15.410;2023-12-07T09:34:10;11.03;;;9.93;;
20988;SDS011;10653;47.052;15.410;2023-12-07T09:36:37;10.57;;;9.55;;
20988;SDS011;10653;47.052;15.410;2023-12-07T09:39:03;10.67;;;9.13;;
20988;SDS011;10653;47.052;15.410;2023-12-07T09:41:29;9.90;;;8.67;;
20988;SDS011;10653;47.052;15.410;2023-12-07T09:43:55;9.27;;;8.23;;
20988;SDS011;10653;47.052;15.410;2023-12-07T09:46:21;9.48;;;8.27;;
20988;SDS011;10653;47.052;15.410;2023-12-07T09:48:48;8.65;;;7.75;;
20988;SDS011;10653;47.052;15.410;2023-12-07T09:51:17;11.05;;;9.25;;
20988;SDS011;10653;47.052;15.410;2023-12-07T09:53:44;8.82;;;7.90;;
20988;SDS011;10653;47.052;15.410;2023-12-07T09:56:10;9.27;;;7.95;;
20988;SDS011;10653;47.052;15.410;2023-12-07T09:58:39;7.18;;;6.35;;
20988;SDS011;10653;47.052;15.410;2023-12-07T10:01:05;8.45;;;7.05;;
20988;SDS011;10653;47.052;15.410;2023-12-07T10:03:31;5.30;;;4.40;;
20988;SDS011;10653;47.052;15.410;2023-12-07T10:05:58;4.30;;;3.20;;
20988;SDS011;10653;47.052;15.410;2023-12-07T10:11:01;1.77;;;1.67;;
20988;SDS011;10653;47.052;15.410;2023-12-07T10:13:28;1.83;;;1.73;;
20988;SDS011;10653;47.052;15.410;2023-12-07T10:18:34;2.25;;;2.05;;
20988;SDS011;10653;47.052;15.410;2023-12-07T10:21:00;1.90;;;1.80;;
20988;SDS011;10653;47.052;15.410;2023-12-07T10:23:27;2.73;;;2.00;;
20988;SDS011;10653;47.052;15.410;2023-12-07T10:25:56;2.40;;;2.20;;
20988;SDS011;10653;47.052;15.410;2023-12-07T10:28:22;1.97;;;1.70;;
20988;SDS011;10653;47.052;15.410;2023-12-07T10:30:48;1.80;;;1.70;;
20988;SDS011;10653;47.052;15.410;2023-12-07T10:33:14;4.00;;;1.80;;
20988;SDS011;10653;47.052;15.410;2023-12-07T10:35:41;1.47;;;1.37;;
20988;SDS011;10653;47.052;15.410;2023-12-07T10:38:07;4.47;;;1.83;;
20988;SDS011;10653;47.052;15.410;2023-12-07T10:40:34;1.57;;;1.47;;
20988;SDS011;10653;47.052;15.410;2023-12-07T10:42:59;1.67;;;1.27;;
20988;SDS011;10653;47.052;15.410;2023-12-07T10:45:30;2.10;;;1.50;;
20988;SDS011;10653;47.052;15.410;2023-12-07T10:48:03;1.60;;;1.50;;
20988;SDS011;10653;47.052;15.410;2023-12-07T10:50:30;1.57;;;1.47;;
20988;SDS011;10653;47.052;15.410;2023-12-07T10:52:57;1.60;;;1.43;;
20988;SDS011;10653;47.052;15.410;2023-12-07T10:55:28;1.07;;;0.93;;
20988;SDS011;10653;47.052;15.410;2023-12-07T10:57:55;0.80;;;0.70;;
20988;SDS011;10653;47.052;15.410;2023-12-07T11:00:22;1.40;;;1.17;;
20988;SDS011;10653;47.052;15.410;2023-12-07T11:02:54;1.00;;;0.90;;
20988;SDS011;10653;47.052;15.410;2023-12-07T11:05:20;2.17;;;1.83;;
20988;SDS011;10653;47.052;15.410;2023-12-07T11:07:55;1.23;;;1.00;;
20988;SDS011;10653;47.052;15.410;2023-12-07T11:13:23;1.83;;;1.20;;
20988;SDS011;10653;47.052;15.410;2023-12-07T11:15:50;1.77;;;1.27;;
20988;SDS011;10653;47.052;15.410;2023-12-07T11:18:16;2.50;;;1.73;;
20988;SDS011;10653;47.052;15.410;2023-12-07T11:20:45;3.43;;;1.47;;
20988;SDS011;10653;47.052;15.410;2023-12-07T11:23:16;1.13;;;1.03;;
20988;SDS011;10653;47.052;15.410;2023-12-07T11:25:45;1.20;;;1.10;;
20988;SDS011;10653;47.052;15.410;2023-12-07T11:28:12;3.60;;;1.27;;
20988;SDS011;10653;47.052;15.410;2023-12-07T11:30:40;1.50;;;1.20;;
20988;SDS011;10653;47.052;15.410;2023-12-07T11:33:07;1.07;;;0.97;;
20988;SDS011;10653;47.052;15.410;2023-12-07T11:36:03;2.03;;;1.47;;
20988;SDS011;10653;47.052;15.410;2023-12-07T11:38:20;1.13;;;1.00;;
20988;SDS011;10653;47.052;15.410;2023-12-07T11:40:46;2.97;;;1.30;;
20988;SDS011;10653;47.052;15.410;2023-12-07T11:45:57;1.33;;;1.23;;
20988;SDS011;10653;47.052;15.410;2023-12-07T11:48:23;1.57;;;1.30;;
20988;SDS011;10653;47.052;15.410;2023-12-07T11:51:07;1.90;;;1.70;;
20988;SDS011;10653;47.052;15.410;2023-12-07T11:53:37;3.50;;;2.33;;
20988;SDS011;10653;47.052;15.410;2023-12-07T11:56:04;2.60;;;1.80;;
20988;SDS011;10653;47.052;15.410;2023-12-07T11:58:31;1.40;;;1.20;;
20988;SDS011;10653;47.052;15.410;2023-12-07T12:00:57;1.80;;;1.23;;
20988;SDS011;10653;47.052;15.410;2023-12-07T12:03:24;2.53;;;1.90;;
20988;SDS011;10653;47.052;15.410;2023-12-07T12:05:50;1.70;;;1.40;;
20988;SDS011;10653;47.052;15.410;2023-12-07T12:08:17;3.10;;;1.80;;
20988;SDS011;10653;47.052;15.410;2023-12-07T12:10:43;2.53;;;2.33;;
20988;SDS011;10653;47.052;15.410;2023-12-07T12:13:09;1.67;;;1.30;;
20988;SDS011;10653;47.052;15.410;2023-12-07T12:15:36;1.83;;;1.63;;
20988;SDS011;10653;47.052;15.410;2023-12-07T12:18:03;1.53;;;1.43;;
20988;SDS011;10653;47.052;15.410;2023-12-07T12:20:29;2.57;;;1.40;;
20988;SDS011;10653;47.052;15.410;2023-12-07T12:22:56;1.57;;;1.20;;
20988;SDS011;10653;47.052;15.410;2023-12-07T12:25:23;2.60;;;1.90;;
20988;SDS011;10653;47.052;15.410;2023-12-07T12:27:51;1.27;;;1.17;;
20988;SDS011;10653;47.052;15.410;2023-12-07T12:30:18;1.50;;;1.40;;
20988;SDS011;10653;47.052;15.410;2023-12-07T12:32:44;1.40;;;1.10;;
20988;SDS011;10653;47.052;15.410;2023-12-07T12:35:10;1.77;;;1.23;;
20988;SDS011;10653;47.052;15.410;2023-12-07T12:37:38;1.90;;;1.67;;
20988;SDS011;10653;47.052;15.410;2023-12-07T12:40:05;1.60;;;1.50;;
20988;SDS011;10653;47.052;15.410;2023-12-07T12:42:31;2.03;;;1.33;;
20988;SDS011;10653;47.052;15.410;2023-12-07T12:44:57;1.33;;;1.23;;
20988;SDS011;10653;47.052;15.410;2023-12-07T12:47:23;5.63;;;1.70;;
20988;SDS011;10653;47.052;15.410;2023-12-07T12:49:49;2.70;;;1.70;;
20988;SDS011;10653;47.052;15.410;2023-12-07T12:52:16;2.00;;;1.63;;
20988;SDS011;10653;47.052;15.410;2023-12-07T12:54:42;2.17;;;1.53;;
20988;SDS011;10653;47.052;15.410;2023-12-07T12:57:09;3.07;;;1.97;;
20988;SDS011;10653;47.052;15.410;2023-12-07T12:59:35;3.50;;;1.47;;
20988;SDS011;10653;47.052;15.410;2023-12-07T13:02:04;1.10;;;1.00;;
20988;SDS011;10653;47.052;15.410;2023-12-07T13:04:30;2.67;;;1.70;;
20988;SDS011;10653;47.052;15.410;2023-12-07T13:06:56;3.80;;;1.33;;
20988;SDS011;10653;47.052;15.410;2023-12-07T13:09:23;1.97;;;1.47;;
20988;SDS011;10653;47.052;15.410;2023-12-07T13:11:49;3.00;;;1.43;;
20988;SDS011;10653;47.052;15.410;2023-12-07T13:14:15;2.40;;;1.20;;
20988;SDS011;10653;47.052;15.410;2023-12-07T13:16:42;1.63;;;1.40;;
20988;SDS011;10653;47.052;15.410;2023-12-07T13:19:08;2.40;;;1.47;;
20988;SDS011;10653;47.052;15.410;2023-12-07T13:21:34;1.67;;;1.57;;
20988;SDS011;10653;47.052;15.410;2023-12-07T13:24:00;1.30;;;1.20;;
20988;SDS011;10653;47.052;15.410;2023-12-07T13:26:29;1.90;;;1.50;;
20988;SDS011;10653;47.052;15.410;2023-12-07T13:28:55;5.10;;;1.50;;
20988;SDS011;10653;47.052;15.410;2023-12-07T13:31:21;1.70;;;1.17;;
20988;SDS011;10653;47.052;15.410;2023-12-07T13:33:47;3.90;;;1.60;;
20988;SDS011;10653;47.052;15.410;2023-12-07T13:36:13;2.37;;;1.57;;
20988;SDS011;10653;47.052;15.410;2023-12-07T13:38:42;1.23;;;0.97;;
20988;SDS011;10653;47.052;15.410;2023-12-07T13:41:08;2.33;;;1.70;;
20988;SDS011;10653;47.052;15.410;2023-12-07T13:43:35;2.47;;;1.53;;
20988;SDS011;10653;47.052;15.410;2023-12-07T13:46:01;3.10;;;1.57;;
20988;SDS011;10653;47.052;15.410;2023-12-07T13:48:27;1.87;;;1.37;;
20988;SDS011;10653;47.052;15.410;2023-12-07T13:50:53;2.60;;;1.30;;
20988;SDS011;10653;47.052;15.410;2023-12-07T13:53:19;2.13;;;1.53;;
20988;SDS011;10653;47.052;15.410;2023-12-07T13:55:45;1.53;;;1.43;;
20988;SDS011;10653;47.052;15.410;2023-12-07T13:58:11;1.97;;;1.40;;
20988;SDS011;10653;47.052;15.410;2023-12-07T14:00:37;1.47;;;1.30;;
20988;SDS011;10653;47.052;15.410;2023-12-07T14:03:03;1.87;;;1.33;;
20988;SDS011;10653;47.052;15.410;2023-12-07T14:05:29;2.00;;;1.63;;
20988;SDS011;10653;47.052;15.410;2023-12-07T14:07:56;1.50;;;1.40;;
20988;SDS011;10653;47.052;15.410;2023-12-07T14:10:22;1.60;;;1.33;;
20988;SDS011;10653;47.052;15.410;2023-12-07T14:12:48;1.70;;;1.60;;
20988;SDS011;10653;47.052;15.410;2023-12-07T14:15:14;2.33;;;2.10;;
20988;SDS011;10653;47.052;15.410;2023-12-07T14:17:40;1.93;;;1.67;;
20988;SDS011;10653;47.052;15.410;2023-12-07T14:20:07;4.10;;;1.90;;
20988;SDS011;10653;47.052;15.410;2023-12-07T14:22:34;2.70;;;1.70;;